Bratislava, Slovakia

10:38 AM CET on December 18, 2014 (GMT +0100)
Zalesie | Change Station
CLOSE
Current Station
Personal Weather Station
Location: Zalesie, SENEC
Elevation: 423 ft
Nearby Weather Stations

Elev 423 ft 48.17 °N, 17.28 °E | Updated 28 seconds ago

Mostly Cloudy
Mostly Cloudy
46.4 °F
Feels Like 46 °F
N
1.6
Wind Variable Wind from South
Gusts 3.5 mph

Today
High -- | Low -- °F
--% Chance of Precip.
Yesterday
High -- | Low -- °F
Precip. -- in
7:37 AM 3:58 PM
Waning Crescent, 16% visible
Pressure 30.04 in
Visibility 6.2 miles
Clouds Scattered Clouds 3200 ft
Mostly Cloudy 6400 ft
Windchill 46 °F
Dew Point 46 °F
Humidity 97%
Rainfall 0.02 in
Snow Depth Not available.
UV 1 out of 12
Pollen Not available.
Air Quality Not available.
Flu Activity Not available.
METAR LZIB 180930Z 24006KT 9999 SCT032 BKN064 07/05 Q1017 NOSIG

More Conditions Fewer Conditions

Pressure 30.04 in
Visibility 6.2 miles
Clouds Scattered Clouds 3200 ft
Mostly Cloudy 6400 ft
Windchill 46 °F
Dew Point 46 °F
Humidity 97%
Rainfall 0.02 in
Snow Depth Not available.
UV 1 out of 12
Pollen Not available.
Air Quality Not available.
Flu Activity Not available.
METAR LZIB 180930Z 24006KT 9999 SCT032 BKN064 07/05 Q1017 NOSIG

More Conditions Fewer Conditions

10-Day Weather Forecast

Almanac

Astronomy

Dec. 18, 2014 Rise Set
Actual Time
Civil Twilight
Nautical Twilight
Astronomical Twilight
Moon
Length of Visible Light
Length of Day
Tomorrow will be .
, % of the Moon is Illuminated

Today's Extremes

Country Highs Country Lows

Community

WunderPhotos

Upload Photos

1,778,907 photos uploaded!

WunderBlogs® & News

Nearby

Air Quality

  Air Quality AQ Index Pollutant
Not available.

Snow Depth

Station Depth Elevation

Earthquake Activity

City Distance Mag. Time & Date
Minimum magnitude displayed is 2.5.

Coastal Water Temperatures

Place Temperature

Nearby Weather Stations